sensor_id;sensor_type;location;lat;lon;timestamp;pressure;altitude;pressure_sealevel;temperature;humidity
9750;BME280;4914;43.218;27.908;2022-09-24T00:01:26;101022.69;;;11.94;100.00
9750;BME280;4914;43.218;27.908;2022-09-24T00:03:55;101032.16;;;11.98;100.00
9750;BME280;4914;43.218;27.908;2022-09-24T00:06:24;101027.06;;;11.95;100.00
9750;BME280;4914;43.218;27.908;2022-09-24T00:08:54;101020.72;;;11.85;100.00
9750;BME280;4914;43.218;27.908;2022-09-24T00:11:22;101024.47;;;11.83;100.00
9750;BME280;4914;43.218;27.908;2022-09-24T00:13:50;101020.97;;;11.82;100.00
9750;BME280;4914;43.218;27.908;2022-09-24T00:16:20;101017.19;;;11.73;100.00
9750;BME280;4914;43.218;27.908;2022-09-24T00:18:47;101015.16;;;11.77;100.00
9750;BME280;4914;43.218;27.908;2022-09-24T00:21:16;101018.81;;;11.87;100.00
9750;BME280;4914;43.218;27.908;2022-09-24T00:23:47;101022.06;;;11.79;100.00
9750;BME280;4914;43.218;27.908;2022-09-24T00:26:15;101021.44;;;11.76;100.00
9750;BME280;4914;43.218;27.908;2022-09-24T00:29:00;101016.25;;;11.74;100.00
9750;BME280;4914;43.218;27.908;2022-09-24T00:31:27;101012.50;;;11.77;100.00
9750;BME280;4914;43.218;27.908;2022-09-24T00:33:54;101018.56;;;11.79;100.00
9750;BME280;4914;43.218;27.908;2022-09-24T00:36:21;101009.94;;;11.75;100.00
9750;BME280;4914;43.218;27.908;2022-09-24T00:38:49;101024.53;;;11.70;100.00
9750;BME280;4914;43.218;27.908;2022-09-24T00:41:19;101022.69;;;11.70;100.00
9750;BME280;4914;43.218;27.908;2022-09-24T00:43:46;101013.91;;;11.70;100.00
9750;BME280;4914;43.218;27.908;2022-09-24T00:46:17;101013.00;;;11.82;100.00
9750;BME280;4914;43.218;27.908;2022-09-24T00:48:49;101012.50;;;11.77;100.00
9750;BME280;4914;43.218;27.908;2022-09-24T00:51:20;101018.06;;;11.74;100.00
9750;BME280;4914;43.218;27.908;2022-09-24T00:53:49;101008.78;;;11.67;100.00
9750;BME280;4914;43.218;27.908;2022-09-24T00:56:19;101009.63;;;11.67;100.00
9750;BME280;4914;43.218;27.908;2022-09-24T00:58:49;101012.03;;;11.59;100.00
9750;BME280;4914;43.218;27.908;2022-09-24T01:01:18;101013.50;;;11.63;100.00
9750;BME280;4914;43.218;27.908;2022-09-24T01:03:47;100999.69;;;11.58;100.00
9750;BME280;4914;43.218;27.908;2022-09-24T01:06:15;101001.97;;;11.52;100.00
9750;BME280;4914;43.218;27.908;2022-09-24T01:08:42;101002.09;;;11.50;100.00
9750;BME280;4914;43.218;27.908;2022-09-24T01:11:20;101001.00;;;11.53;100.00
9750;BME280;4914;43.218;27.908;2022-09-24T01:14:05;101000.78;;;11.56;100.00
9750;BME280;4914;43.218;27.908;2022-09-24T01:16:41;100996.28;;;11.56;100.00
9750;BME280;4914;43.218;27.908;2022-09-24T01:19:28;101000.38;;;11.49;100.00
9750;BME280;4914;43.218;27.908;2022-09-24T01:22:02;101006.56;;;11.50;100.00
9750;BME280;4914;43.218;27.908;2022-09-24T01:24:49;101001.34;;;11.48;100.00
9750;BME280;4914;43.218;27.908;2022-09-24T01:27:37;100999.78;;;11.46;100.00
9750;BME280;4914;43.218;27.908;2022-09-24T01:30:12;100999.78;;;11.46;100.00
9750;BME280;4914;43.218;27.908;2022-09-24T01:32:42;101005.78;;;11.36;100.00
9750;BME280;4914;43.218;27.908;2022-09-24T01:35:15;101006.00;;;11.33;100.00
9750;BME280;4914;43.218;27.908;2022-09-24T01:37:49;101004.94;;;11.36;100.00
9750;BME280;4914;43.218;27.908;2022-09-24T01:40:19;101002.81;;;11.28;100.00
9750;BME280;4914;43.218;27.908;2022-09-24T01:42:48;101004.28;;;11.32;100.00
9750;BME280;4914;43.218;27.908;2022-09-24T01:45:18;101008.28;;;11.27;100.00
9750;BME280;4914;43.218;27.908;2022-09-24T01:47:46;101015.09;;;11.18;100.00
9750;BME280;4914;43.218;27.908;2022-09-24T01:50:15;101004.25;;;11.21;100.00
9750;BME280;4914;43.218;27.908;2022-09-24T01:52:47;101012.44;;;11.18;100.00
9750;BME280;4914;43.218;27.908;2022-09-24T01:55:19;101000.31;;;11.14;100.00
9750;BME280;4914;43.218;27.908;2022-09-24T01:57:51;101014.22;;;11.18;100.00
9750;BME280;4914;43.218;27.908;2022-09-24T02:00:21;101005.88;;;11.11;100.00
9750;BME280;4914;43.218;27.908;2022-09-24T02:02:54;101011.41;;;11.08;100.00
9750;BME280;4914;43.218;27.908;2022-09-24T02:05:29;101014.38;;;11.16;100.00
9750;BME280;4914;43.218;27.908;2022-09-24T02:08:03;101014.66;;;11.24;100.00
9750;BME280;4914;43.218;27.908;2022-09-24T02:10:36;101004.34;;;11.20;100.00
9750;BME280;4914;43.218;27.908;2022-09-24T02:13:10;101001.94;;;11.17;100.00
9750;BME280;4914;43.218;27.908;2022-09-24T02:15:42;101016.28;;;11.14;100.00
9750;BME280;4914;43.218;27.908;2022-09-24T02:18:13;101021.81;;;11.11;100.00
9750;BME280;4914;43.218;27.908;2022-09-24T02:20:43;101021.06;;;11.09;100.00
9750;BME280;4914;43.218;27.908;2022-09-24T02:23:10;101015.59;;;11.00;100.00
9750;BME280;4914;43.218;27.908;2022-09-24T02:25:42;101013.53;;;11.03;100.00
9750;BME280;4914;43.218;27.908;2022-09-24T02:28:10;100999.78;;;10.98;100.00
9750;BME280;4914;43.218;27.908;2022-09-24T02:30:42;101020.03;;;10.99;100.00
9750;BME280;4914;43.218;27.908;2022-09-24T02:33:13;101016.53;;;10.99;100.00
9750;BME280;4914;43.218;27.908;2022-09-24T02:35:58;101024.50;;;10.99;100.00
9750;BME280;4914;43.218;27.908;2022-09-24T02:38:25;101020.69;;;11.03;100.00
9750;BME280;4914;43.218;27.908;2022-09-24T02:40:52;101032.91;;;11.05;100.00
9750;BME280;4914;43.218;27.908;2022-09-24T02:43:20;101028.00;;;11.12;100.00
9750;BME280;4914;43.218;27.908;2022-09-24T02:45:48;101031.78;;;11.20;100.00
9750;BME280;4914;43.218;27.908;2022-09-24T02:48:15;101031.53;;;11.23;100.00
9750;BME280;4914;43.218;27.908;2022-09-24T02:50:42;101031.34;;;11.26;100.00
9750;BME280;4914;43.218;27.908;2022-09-24T02:53:09;101040.28;;;11.25;100.00
9750;BME280;4914;43.218;27.908;2022-09-24T02:55:35;101039.75;;;11.20;100.00
9750;BME280;4914;43.218;27.908;2022-09-24T02:58:02;101035.25;;;11.33;100.00
9750;BME280;4914;43.218;27.908;2022-09-24T03:00:29;101033.88;;;11.28;100.00
9750;BME280;4914;43.218;27.908;2022-09-24T03:02:57;101036.84;;;11.36;100.00
9750;BME280;4914;43.218;27.908;2022-09-24T03:05:24;101042.59;;;11.54;100.00
9750;BME280;4914;43.218;27.908;2022-09-24T03:07:51;101030.19;;;11.42;100.00
9750;BME280;4914;43.218;27.908;2022-09-24T03:10:18;101042.66;;;11.41;100.00
9750;BME280;4914;43.218;27.908;2022-09-24T03:12:45;101050.41;;;11.44;100.00
9750;BME280;4914;43.218;27.908;2022-09-24T03:15:12;101047.81;;;11.31;100.00
9750;BME280;4914;43.218;27.908;2022-09-24T03:17:38;101048.75;;;11.30;100.00
9750;BME280;4914;43.218;27.908;2022-09-24T03:20:07;101044.06;;;11.34;100.00
9750;BME280;4914;43.218;27.908;2022-09-24T03:22:34;101050.22;;;11.34;100.00
9750;BME280;4914;43.218;27.908;2022-09-24T03:25:01;101059.59;;;11.27;100.00
9750;BME280;4914;43.218;27.908;2022-09-24T03:27:28;101054.53;;;11.24;100.00
9750;BME280;4914;43.218;27.908;2022-09-24T03:29:55;101060.34;;;11.29;100.00
9750;BME280;4914;43.218;27.908;2022-09-24T03:32:39;101049.63;;;11.18;100.00
9750;BME280;4914;43.218;27.908;2022-09-24T03:35:07;101054.44;;;11.13;100.00
9750;BME280;4914;43.218;27.908;2022-09-24T03:37:36;101060.75;;;11.12;100.00
9750;BME280;4914;43.218;27.908;2022-09-24T03:40:04;101056.38;;;11.11;100.00
9750;BME280;4914;43.218;27.908;2022-09-24T03:42:32;101061.13;;;11.19;100.00
9750;BME280;4914;43.218;27.908;2022-09-24T03:44:59;101063.50;;;11.11;100.00
9750;BME280;4914;43.218;27.908;2022-09-24T03:47:26;101065.22;;;10.99;100.00
9750;BME280;4914;43.218;27.908;2022-09-24T03:49:53;101067.16;;;10.97;100.00
9750;BME280;4914;43.218;27.908;2022-09-24T03:52:22;101060.88;;;10.98;100.00
9750;BME280;4914;43.218;27.908;2022-09-24T03:54:49;101062.34;;;11.02;100.00
9750;BME280;4914;43.218;27.908;2022-09-24T03:57:16;101068.53;;;11.03;100.00
9750;BME280;4914;43.218;27.908;2022-09-24T03:59:43;101077.66;;;10.99;100.00
9750;BME280;4914;43.218;27.908;2022-09-24T04:02:11;101072.53;;;11.08;100.00
9750;BME280;4914;43.218;27.908;2022-09-24T04:04:38;101074.47;;;11.06;100.00
9750;BME280;4914;43.218;27.908;2022-09-24T04:07:05;101076.88;;;11.09;100.00
9750;BME280;4914;43.218;27.908;2022-09-24T04:09:33;101084.47;;;10.90;100.00
9750;BME280;4914;43.218;27.908;2022-09-24T04:12:01;101086.31;;;10.77;100.00
9750;BME280;4914;43.218;27.908;2022-09-24T04:14:28;101100.31;;;10.66;100.00
9750;BME280;4914;43.218;27.908;2022-09-24T04:16:55;101105.22;;;10.60;100.00
9750;BME280;4914;43.218;27.908;2022-09-24T04:19:23;101103.00;;;10.54;100.00
9750;BME280;4914;43.218;27.908;2022-09-24T04:21:51;101107.78;;;10.48;100.00
9750;BME280;4914;43.218;27.908;2022-09-24T04:24:18;101108.50;;;10.50;100.00
9750;BME280;4914;43.218;27.908;2022-09-24T04:26:47;101115.31;;;10.55;100.00
9750;BME280;4914;43.218;27.908;2022-09-24T04:29:15;101119.66;;;10.56;100.00
9750;BME280;4914;43.218;27.908;2022-09-24T04:31:42;101117.09;;;10.41;100.00
9750;BME280;4914;43.218;27.908;2022-09-24T04:34:09;101119.44;;;10.46;100.00
9750;BME280;4914;43.218;27.908;2022-09-24T04:36:35;101123.59;;;10.50;100.00
9750;BME280;4914;43.218;27.908;2022-09-24T04:39:02;101122.75;;;10.49;100.00
9750;BME280;4914;43.218;27.908;2022-09-24T04:41:30;101129.66;;;10.52;100.00
9750;BME280;4914;43.218;27.908;2022-09-24T04:44:01;101135.41;;;10.59;100.00
9750;BME280;4914;43.218;27.908;2022-09-24T04:46:28;101134.22;;;10.63;100.00
9750;BME280;4914;43.218;27.908;2022-09-24T04:48:57;101134.84;;;10.66;100.00
9750;BME280;4914;43.218;27.908;2022-09-24T04:51:24;101136.16;;;10.73;100.00
9750;BME280;4914;43.218;27.908;2022-09-24T04:53:51;101141.00;;;10.79;100.00
9750;BME280;4914;43.218;27.908;2022-09-24T04:56:18;101136.44;;;10.81;100.00
9750;BME280;4914;43.218;27.908;2022-09-24T04:58:49;101138.78;;;10.86;100.00
9750;BME280;4914;43.218;27.908;2022-09-24T05:01:17;101146.97;;;10.96;100.00
9750;BME280;4914;43.218;27.908;2022-09-24T05:03:44;101141.63;;;11.21;100.00
9750;BME280;4914;43.218;27.908;2022-09-24T05:06:11;101142.84;;;11.41;100.00
9750;BME280;4914;43.218;27.908;2022-09-24T05:08:38;101141.44;;;11.48;100.00
9750;BME280;4914;43.218;27.908;2022-09-24T05:11:05;101143.56;;;11.43;100.00
9750;BME280;4914;43.218;27.908;2022-09-24T05:13:32;101145.28;;;11.44;100.00
9750;BME280;4914;43.218;27.908;2022-09-24T05:15:59;101139.97;;;11.44;100.00
9750;BME280;4914;43.218;27.908;2022-09-24T05:18:28;101141.88;;;11.42;100.00
9750;BME280;4914;43.218;27.908;2022-09-24T05:20:55;101141.88;;;11.42;100.00
9750;BME280;4914;43.218;27.908;2022-09-24T05:23:21;101139.72;;;11.47;100.00
9750;BME280;4914;43.218;27.908;2022-09-24T05:25:48;101147.41;;;11.38;100.00
9750;BME280;4914;43.218;27.908;2022-09-24T05:28:33;101144.25;;;11.33;100.00
9750;BME280;4914;43.218;27.908;2022-09-24T05:31:00;101140.63;;;11.34;100.00
9750;BME280;4914;43.218;27.908;2022-09-24T05:33:28;101155.25;;;11.53;100.00
9750;BME280;4914;43.218;27.908;2022-09-24T05:35:56;101149.50;;;11.59;100.00
9750;BME280;4914;43.218;27.908;2022-09-24T05:38:23;101152.25;;;11.57;100.00
9750;BME280;4914;43.218;27.908;2022-09-24T05:40:50;101154.06;;;11.57;100.00
9750;BME280;4914;43.218;27.908;2022-09-24T05:43:17;101153.13;;;11.58;100.00
9750;BME280;4914;43.218;27.908;2022-09-24T05:45:45;101156.28;;;11.63;100.00
9750;BME280;4914;43.218;27.908;2022-09-24T05:48:12;101153.91;;;11.71;100.00
9750;BME280;4914;43.218;27.908;2022-09-24T05:50:40;101155.72;;;11.83;100.00
9750;BME280;4914;43.218;27.908;2022-09-24T05:53:07;101169.81;;;11.96;100.00
9750;BME280;4914;43.218;27.908;2022-09-24T05:55:34;101169.97;;;12.06;100.00
9750;BME280;4914;43.218;27.908;2022-09-24T05:58:02;101178.88;;;12.17;100.00
9750;BME280;4914;43.218;27.908;2022-09-24T06:00:29;101183.97;;;12.20;100.00
9750;BME280;4914;43.218;27.908;2022-09-24T06:03:01;101176.03;;;12.32;100.00
9750;BME280;4914;43.218;27.908;2022-09-24T06:05:29;101182.13;;;12.45;100.00
9750;BME280;4914;43.218;27.908;2022-09-24T06:07:57;101188.34;;;12.56;100.00
9750;BME280;4914;43.218;27.908;2022-09-24T06:10:24;101186.28;;;12.60;100.00
9750;BME280;4914;43.218;27.908;2022-09-24T06:12:51;101192.25;;;12.86;100.00
9750;BME280;4914;43.218;27.908;2022-09-24T06:15:19;101193.88;;;12.99;100.00
9750;BME280;4914;43.218;27.908;2022-09-24T06:17:46;101201.69;;;13.14;100.00
9750;BME280;4914;43.218;27.908;2022-09-24T06:20:13;101202.41;;;13.27;100.00
9750;BME280;4914;43.218;27.908;2022-09-24T06:22:40;101202.16;;;13.30;100.00
9750;BME280;4914;43.218;27.908;2022-09-24T06:25:09;101204.84;;;13.41;100.00
9750;BME280;4914;43.218;27.908;2022-09-24T06:27:35;101204.84;;;13.41;100.00
9750;BME280;4914;43.218;27.908;2022-09-24T06:30:03;101209.06;;;13.54;100.00
9750;BME280;4914;43.218;27.908;2022-09-24T06:32:30;101209.75;;;13.79;100.00
9750;BME280;4914;43.218;27.908;2022-09-24T06:34:57;101209.13;;;13.86;100.00
9750;BME280;4914;43.218;27.908;2022-09-24T06:37:23;101202.81;;;13.98;100.00
9750;BME280;4914;43.218;27.908;2022-09-24T06:39:50;101213.69;;;14.07;100.00
9750;BME280;4914;43.218;27.908;2022-09-24T06:42:18;101209.75;;;14.22;100.00
9750;BME280;4914;43.218;27.908;2022-09-24T06:44:45;101206.06;;;14.34;100.00
9750;BME280;4914;43.218;27.908;2022-09-24T06:47:12;101208.22;;;14.51;100.00
9750;BME280;4914;43.218;27.908;2022-09-24T06:49:39;101212.59;;;14.73;100.00
9750;BME280;4914;43.218;27.908;2022-09-24T06:52:06;101220.88;;;14.91;100.00
9750;BME280;4914;43.218;27.908;2022-09-24T06:54:33;101214.75;;;15.00;97.66
9750;BME280;4914;43.218;27.908;2022-09-24T06:57:00;101211.63;;;14.95;96.67
9750;BME280;4914;43.218;27.908;2022-09-24T06:59:28;101223.00;;;15.17;95.78
9750;BME280;4914;43.218;27.908;2022-09-24T07:01:55;101214.13;;;15.47;83.95
9750;BME280;4914;43.218;27.908;2022-09-24T07:04:23;101200.75;;;15.47;81.10
9750;BME280;4914;43.218;27.908;2022-09-24T07:06:50;101211.94;;;15.52;83.72
9750;BME280;4914;43.218;27.908;2022-09-24T07:09:34;101203.53;;;15.66;80.57
9750;BME280;4914;43.218;27.908;2022-09-24T07:12:02;101208.94;;;15.86;75.13
9750;BME280;4914;43.218;27.908;2022-09-24T07:14:31;101209.19;;;15.83;76.71
9750;BME280;4914;43.218;27.908;2022-09-24T07:16:58;101208.97;;;16.05;75.89
9750;BME280;4914;43.218;27.908;2022-09-24T07:19:25;101209.69;;;16.36;72.91
9750;BME280;4914;43.218;27.908;2022-09-24T07:21:52;101214.47;;;16.51;69.89
9750;BME280;4914;43.218;27.908;2022-09-24T07:24:18;101207.41;;;16.50;71.08
9750;BME280;4914;43.218;27.908;2022-09-24T07:26:45;101212.53;;;16.73;71.98
9750;BME280;4914;43.218;27.908;2022-09-24T07:29:12;101206.09;;;17.02;67.71
9750;BME280;4914;43.218;27.908;2022-09-24T07:31:40;101207.78;;;17.13;67.45
9750;BME280;4914;43.218;27.908;2022-09-24T07:34:07;101207.78;;;17.13;66.61
9750;BME280;4914;43.218;27.908;2022-09-24T07:36:34;101209.78;;;17.11;66.62
9750;BME280;4914;43.218;27.908;2022-09-24T07:39:01;101207.19;;;17.19;66.14
9750;BME280;4914;43.218;27.908;2022-09-24T07:41:28;101211.78;;;17.36;65.83
9750;BME280;4914;43.218;27.908;2022-09-24T07:43:55;101200.72;;;17.49;64.38
9750;BME280;4914;43.218;27.908;2022-09-24T07:46:22;101206.88;;;17.22;64.77
9750;BME280;4914;43.218;27.908;2022-09-24T07:48:53;101214.22;;;17.30;65.65
9750;BME280;4914;43.218;27.908;2022-09-24T07:51:20;101205.34;;;17.57;63.28
9750;BME280;4914;43.218;27.908;2022-09-24T07:53:47;101200.66;;;17.68;62.46
9750;BME280;4914;43.218;27.908;2022-09-24T07:56:14;101216.38;;;18.08;63.85
9750;BME280;4914;43.218;27.908;2022-09-24T07:58:42;101216.41;;;18.44;60.47
9750;BME280;4914;43.218;27.908;2022-09-24T08:01:09;101213.25;;;18.66;58.80
9750;BME280;4914;43.218;27.908;2022-09-24T08:03:37;101223.97;;;19.01;58.34
9750;BME280;4914;43.218;27.908;2022-09-24T08:06:06;101215.84;;;18.93;56.43
9750;BME280;4914;43.218;27.908;2022-09-24T08:08:33;101211.19;;;19.03;55.74
9750;BME280;4914;43.218;27.908;2022-09-24T08:11:02;101223.59;;;18.96;55.56
9750;BME280;4914;43.218;27.908;2022-09-24T08:13:29;101224.59;;;18.95;55.04
9750;BME280;4914;43.218;27.908;2022-09-24T08:15:56;101213.16;;;19.45;54.25
9750;BME280;4914;43.218;27.908;2022-09-24T08:18:24;101214.00;;;19.87;51.85
9750;BME280;4914;43.218;27.908;2022-09-24T08:20:51;101207.97;;;20.10;51.02
9750;BME280;4914;43.218;27.908;2022-09-24T08:23:20;101211.72;;;20.25;50.53
9750;BME280;4914;43.218;27.908;2022-09-24T08:25:46;101209.56;;;20.44;50.63
9750;BME280;4914;43.218;27.908;2022-09-24T08:28:13;101196.53;;;21.68;50.54
9750;BME280;4914;43.218;27.908;2022-09-24T08:30:41;101210.13;;;22.67;46.13
9750;BME280;4914;43.218;27.908;2022-09-24T08:33:09;101200.06;;;23.42;43.16
9750;BME280;4914;43.218;27.908;2022-09-24T08:35:37;101192.25;;;23.48;42.11
9750;BME280;4914;43.218;27.908;2022-09-24T08:38:05;101200.34;;;23.33;41.48
9750;BME280;4914;43.218;27.908;2022-09-24T08:40:36;101200.09;;;24.44;39.81
9750;BME280;4914;43.218;27.908;2022-09-24T08:43:09;101205.97;;;25.17;39.02
9750;BME280;4914;43.218;27.908;2022-09-24T08:45:45;101191.56;;;25.58;38.81
9750;BME280;4914;43.218;27.908;2022-09-24T08:48:35;101183.06;;;25.74;37.30
9750;BME280;4914;43.218;27.908;2022-09-24T08:51:10;101191.09;;;26.02;35.94
9750;BME280;4914;43.218;27.908;2022-09-24T08:53:43;101184.34;;;26.52;35.87
9750;BME280;4914;43.218;27.908;2022-09-24T08:56:17;101185.50;;;27.35;34.25
9750;BME280;4914;43.218;27.908;2022-09-24T08:58:48;101182.75;;;27.61;34.14
9750;BME280;4914;43.218;27.908;2022-09-24T09:01:23;101180.22;;;28.42;32.82
9750;BME280;4914;43.218;27.908;2022-09-24T09:03:57;101179.94;;;28.50;32.53
9750;BME280;4914;43.218;27.908;2022-09-24T09:06:46;101187.72;;;28.53;31.70
9750;BME280;4914;43.218;27.908;2022-09-24T09:09:20;101174.78;;;27.98;32.83
9750;BME280;4914;43.218;27.908;2022-09-24T09:11:51;101168.34;;;27.86;32.70
9750;BME280;4914;43.218;27.908;2022-09-24T09:14:26;101165.06;;;28.15;32.72
9750;BME280;4914;43.218;27.908;2022-09-24T09:16:59;101178.91;;;29.19;30.97
9750;BME280;4914;43.218;27.908;2022-09-24T09:19:31;101168.09;;;30.80;28.34
9750;BME280;4914;43.218;27.908;2022-09-24T09:22:04;101176.47;;;31.32;27.30
9750;BME280;4914;43.218;27.908;2022-09-24T09:24:39;101172.22;;;30.48;28.59
9750;BME280;4914;43.218;27.908;2022-09-24T09:27:12;101171.56;;;30.87;28.00
9750;BME280;4914;43.218;27.908;2022-09-24T09:29:40;101172.16;;;29.95;28.97
9750;BME280;4914;43.218;27.908;2022-09-24T09:32:15;101173.59;;;30.39;27.58
9750;BME280;4914;43.218;27.908;2022-09-24T09:34:54;101168.44;;;30.72;27.55
9750;BME280;4914;43.218;27.908;2022-09-24T09:37:28;101165.84;;;30.89;26.59
9750;BME280;4914;43.218;27.908;2022-09-24T09:40:08;101159.94;;;30.09;26.93
9750;BME280;4914;43.218;27.908;2022-09-24T09:42:42;101160.03;;;29.54;28.09
9750;BME280;4914;43.218;27.908;2022-09-24T09:45:18;101165.13;;;30.28;26.90
9750;BME280;4914;43.218;27.908;2022-09-24T09:47:49;101153.66;;;29.90;26.69
9750;BME280;4914;43.218;27.908;2022-09-24T09:50:25;101152.59;;;30.32;26.79
9750;BME280;4914;43.218;27.908;2022-09-24T09:52:52;101151.28;;;30.77;26.15
9750;BME280;4914;43.218;27.908;2022-09-24T09:55:22;101142.06;;;30.94;25.64
9750;BME280;4914;43.218;27.908;2022-09-24T09:57:51;101149.72;;;30.92;25.34
9750;BME280;4914;43.218;27.908;2022-09-24T10:00:26;101152.38;;;31.10;25.38
9750;BME280;4914;43.218;27.908;2022-09-24T10:02:58;101150.84;;;31.03;25.42
9750;BME280;4914;43.218;27.908;2022-09-24T10:05:25;101149.34;;;30.12;24.92
9750;BME280;4914;43.218;27.908;2022-09-24T10:07:53;101148.13;;;30.08;25.21
9750;BME280;4914;43.218;27.908;2022-09-24T10:10:23;101148.78;;;30.98;25.07
9750;BME280;4914;43.218;27.908;2022-09-24T10:12:53;101142.09;;;30.83;24.57
9750;BME280;4914;43.218;27.908;2022-09-24T10:15:21;101141.84;;;31.19;24.33
9750;BME280;4914;43.218;27.908;2022-09-24T10:17:51;101139.09;;;31.19;24.24
9750;BME280;4914;43.218;27.908;2022-09-24T10:20:21;101147.72;;;31.11;23.85
9750;BME280;4914;43.218;27.908;2022-09-24T10:22:51;101140.84;;;30.44;24.10
9750;BME280;4914;43.218;27.908;2022-09-24T10:25:22;101135.84;;;31.34;23.98
9750;BME280;4914;43.218;27.908;2022-09-24T10:27:53;101141.84;;;30.72;24.26
9750;BME280;4914;43.218;27.908;2022-09-24T10:30:50;101132.72;;;31.42;24.08
9750;BME280;4914;43.218;27.908;2022-09-24T10:33:16;101136.41;;;31.47;24.05
9750;BME280;4914;43.218;27.908;2022-09-24T10:35:43;101139.16;;;31.59;23.01
9750;BME280;4914;43.218;27.908;2022-09-24T10:38:15;101135.44;;;32.55;22.69
9750;BME280;4914;43.218;27.908;2022-09-24T10:40:43;101137.13;;;32.56;22.22
9750;BME280;4914;43.218;27.908;2022-09-24T10:43:17;101142.06;;;32.71;21.83
9750;BME280;4914;43.218;27.908;2022-09-24T10:46:09;101138.03;;;32.78;21.29
9750;BME280;4914;43.218;27.908;2022-09-24T10:48:42;101128.94;;;32.44;22.51
9750;BME280;4914;43.218;27.908;2022-09-24T10:51:27;101124.88;;;32.80;22.05
9750;BME280;4914;43.218;27.908;2022-09-24T10:56:52;101132.25;;;32.97;21.25
9750;BME280;4914;43.218;27.908;2022-09-24T10:59:42;101146.81;;;32.14;22.33
9750;BME280;4914;43.218;27.908;2022-09-24T11:02:45;101145.13;;;29.80;24.38
9750;BME280;4914;43.218;27.908;2022-09-24T11:05:18;101136.38;;;28.55;25.51
9750;BME280;4914;43.218;27.908;2022-09-24T11:08:11;101133.66;;;28.80;25.58
9750;BME280;4914;43.218;27.908;2022-09-24T11:11:06;101123.75;;;29.88;24.30
9750;BME280;4914;43.218;27.908;2022-09-24T11:13:42;101118.81;;;29.31;24.76
9750;BME280;4914;43.218;27.908;2022-09-24T11:16:33;101112.19;;;29.57;24.73
9750;BME280;4914;43.218;27.908;2022-09-24T11:19:07;101116.28;;;30.25;23.06
9750;BME280;4914;43.218;27.908;2022-09-24T11:21:57;101106.78;;;31.61;23.06
9750;BME280;4914;43.218;27.908;2022-09-24T11:24:41;101116.41;;;28.80;24.55
9750;BME280;4914;43.218;27.908;2022-09-24T11:27:33;101113.25;;;26.86;26.74
9750;BME280;4914;43.218;27.908;2022-09-24T11:30:08;101115.09;;;26.00;28.27
9750;BME280;4914;43.218;27.908;2022-09-24T11:32:48;101108.66;;;26.61;27.68
9750;BME280;4914;43.218;27.908;2022-09-24T11:35:35;101111.13;;;26.16;27.90
9750;BME280;4914;43.218;27.908;2022-09-24T11:38:10;101101.50;;;25.40;28.76
9750;BME280;4914;43.218;27.908;2022-09-24T11:41:09;101098.41;;;27.40;26.86
9750;BME280;4914;43.218;27.908;2022-09-24T11:43:52;101101.25;;;29.20;25.07
9750;BME280;4914;43.218;27.908;2022-09-24T11:46:37;101092.78;;;29.58;24.51
9750;BME280;4914;43.218;27.908;2022-09-24T11:49:37;101098.56;;;26.94;25.77
9750;BME280;4914;43.218;27.908;2022-09-24T11:52:13;101094.66;;;25.57;27.52
9750;BME280;4914;43.218;27.908;2022-09-24T11:54:55;101093.81;;;24.81;28.73
9750;BME280;4914;43.218;27.908;2022-09-24T11:57:27;101097.16;;;25.11;28.96
9750;BME280;4914;43.218;27.908;2022-09-24T11:59:59;101101.00;;;25.77;28.66
9750;BME280;4914;43.218;27.908;2022-09-24T12:02:33;101087.28;;;26.91;27.19
9750;BME280;4914;43.218;27.908;2022-09-24T12:05:06;101102.34;;;26.21;26.83
9750;BME280;4914;43.218;27.908;2022-09-24T12:07:37;101098.44;;;25.56;27.82
9750;BME280;4914;43.218;27.908;2022-09-24T12:10:23;101098.34;;;24.67;28.89
9750;BME280;4914;43.218;27.908;2022-09-24T12:12:53;101092.84;;;24.61;29.16
9750;BME280;4914;43.218;27.908;2022-09-24T12:15:28;101095.66;;;25.02;28.63
9750;BME280;4914;43.218;27.908;2022-09-24T12:17:58;101093.44;;;24.84;28.72
9750;BME280;4914;43.218;27.908;2022-09-24T12:20:30;101097.09;;;24.70;29.09
9750;BME280;4914;43.218;27.908;2022-09-24T12:23:01;101095.19;;;24.36;29.59
9750;BME280;4914;43.218;27.908;2022-09-24T12:25:37;101106.31;;;23.84;30.43
9750;BME280;4914;43.218;27.908;2022-09-24T12:28:08;101096.56;;;23.68;30.72
9750;BME280;4914;43.218;27.908;2022-09-24T12:30:41;101095.72;;;23.68;31.18
9750;BME280;4914;43.218;27.908;2022-09-24T12:33:31;101087.59;;;23.68;30.20
9750;BME280;4914;43.218;27.908;2022-09-24T12:36:06;101094.97;;;23.74;29.97
9750;BME280;4914;43.218;27.908;2022-09-24T12:38:38;101091.16;;;23.68;31.05
9750;BME280;4914;43.218;27.908;2022-09-24T12:41:28;101084.34;;;23.79;29.80
9750;BME280;4914;43.218;27.908;2022-09-24T12:44:02;101083.56;;;24.21;29.71
9750;BME280;4914;43.218;27.908;2022-09-24T12:46:34;101093.06;;;24.87;28.69
9750;BME280;4914;43.218;27.908;2022-09-24T12:49:16;101091.16;;;25.22;26.98
9750;BME280;4914;43.218;27.908;2022-09-24T12:51:45;101082.00;;;25.30;27.15
9750;BME280;4914;43.218;27.908;2022-09-24T12:54:22;101100.19;;;25.29;27.92
9750;BME280;4914;43.218;27.908;2022-09-24T12:57:04;101096.44;;;24.96;28.00
9750;BME280;4914;43.218;27.908;2022-09-24T12:59:31;101092.66;;;24.90;27.96
9750;BME280;4914;43.218;27.908;2022-09-24T13:02:06;101092.47;;;24.92;28.81
9750;BME280;4914;43.218;27.908;2022-09-24T13:04:49;101098.31;;;24.95;28.43
9750;BME280;4914;43.218;27.908;2022-09-24T13:07:30;101080.13;;;24.12;28.78
9750;BME280;4914;43.218;27.908;2022-09-24T13:10:10;101092.50;;;23.79;30.14
9750;BME280;4914;43.218;27.908;2022-09-24T13:12:37;101102.41;;;23.51;30.42
9750;BME280;4914;43.218;27.908;2022-09-24T13:15:06;101100.84;;;22.83;31.34
9750;BME280;4914;43.218;27.908;2022-09-24T13:17:35;101099.47;;;22.64;31.41
9750;BME280;4914;43.218;27.908;2022-09-24T13:20:05;101096.41;;;22.67;31.80